Time;durP1;ratioP1;P1;durP2;ratioP2;P2;SDS_P1;SDS_P2;PMS_P1;PMS_P2;Temp;Humidity;BMP_temperature;BMP_pressure;BME280_temperature;BME280_humidity;BME280_pressure;Samples;Min_cycle;Max_cycle;Signal;HPM_P1;HPM_P2
2022/05/18 00:01:22;;;;;;;8.63;4.60;;;18.30;75.90;;;;;;5057020;28;20696;-74
2022/05/18 00:03:48;;;;;;;4.67;3.70;;;18.30;76.10;;;;;;5050077;28;20205;-74
2022/05/18 00:06:14;;;;;;;6.13;4.37;;;18.30;76.20;;;;;;5055391;28;20522;-74
2022/05/18 00:08:39;;;;;;;7.10;4.30;;;18.20;77.00;;;;;;5055753;28;20554;-76
2022/05/18 00:11:09;;;;;;;6.03;4.20;;;18.10;77.10;;;;;;5050150;28;20425;-74
2022/05/18 00:13:35;;;;;;;6.80;4.00;;;18.00;77.70;;;;;;5045027;28;20485;-74
2022/05/18 00:16:01;;;;;;;7.00;4.40;;;18.00;77.80;;;;;;5055638;28;20414;-75
2022/05/18 00:18:27;;;;;;;15.17;4.37;;;18.00;77.80;;;;;;5052753;28;20763;-74
2022/05/18 00:20:53;;;;;;;7.97;4.67;;;17.90;78.10;;;;;;5055736;28;20192;-74
2022/05/18 00:23:18;;;;;;;4.60;3.80;;;17.90;78.00;;;;;;5055514;28;20229;-75
2022/05/18 00:25:44;;;;;;;6.37;4.20;;;17.90;78.00;;;;;;5053297;28;20187;-76
2022/05/18 00:28:10;;;;;;;6.97;4.00;;;17.90;77.60;;;;;;5056710;28;20205;-74
2022/05/18 00:30:40;;;;;;;7.30;3.90;;;17.90;77.40;;;;;;5060004;28;20661;-73
2022/05/18 00:33:08;;;;;;;5.50;4.30;;;17.90;77.60;;;;;;5055300;28;20212;-76
2022/05/18 00:35:35;;;;;;;7.70;4.63;;;17.90;77.60;;;;;;5046479;28;20419;-75
2022/05/18 00:38:01;;;;;;;5.60;3.87;;;17.80;77.80;;;;;;5044764;28;20420;-75
2022/05/18 00:40:28;;;;;;;6.60;4.00;;;17.70;78.60;;;;;;5050412;28;21401;-75
2022/05/18 00:42:54;;;;;;;6.83;4.53;;;17.70;78.90;;;;;;5044628;28;20559;-74
2022/05/18 00:45:20;;;;;;;6.93;4.10;;;17.60;79.00;;;;;;5043374;28;21002;-76
2022/05/18 00:47:45;;;;;;;5.93;3.47;;;17.60;79.20;;;;;;5049283;28;20217;-75
2022/05/18 00:50:19;;;;;;;6.47;4.10;;;17.60;79.00;;;;;;5045796;28;20200;-75
2022/05/18 00:53:32;;;;;;;10.67;4.50;;;17.60;79.00;;;;;;5042428;28;20734;-76
2022/05/18 00:56:03;;;;;;;7.20;4.00;;;17.60;78.70;;;;;;5045430;28;20445;-75
2022/05/18 00:58:29;;;;;;;7.00;4.20;;;17.50;78.70;;;;;;5044581;28;20438;-74
2022/05/18 01:00:56;;;;;;;6.23;4.07;;;17.50;78.70;;;;;;5052689;28;20981;-76
2022/05/18 01:03:54;;;;;;;7.93;4.63;;;17.50;78.70;;;;;;5040788;28;20208;-76
2022/05/18 01:06:33;;;;;;;9.33;4.70;;;17.40;78.70;;;;;;5028285;28;20433;-75
2022/05/18 01:09:06;;;;;;;6.10;3.80;;;17.40;79.00;;;;;;5030023;28;20479;-76
2022/05/18 01:11:34;;;;;;;5.57;3.70;;;17.50;78.90;;;;;;5021561;28;20521;-76
2022/05/18 01:14:02;;;;;;;7.00;4.23;;;17.40;78.70;;;;;;5024748;28;20440;-75
2022/05/18 01:16:28;;;;;;;7.40;4.70;;;17.40;78.70;;;;;;5029782;28;20423;-75
2022/05/18 01:18:56;;;;;;;7.90;4.50;;;17.40;78.40;;;;;;5024920;28;20853;-75
2022/05/18 01:21:28;;;;;;;6.40;4.77;;;17.40;78.40;;;;;;5026297;28;20524;-75
2022/05/18 01:24:20;;;;;;;7.50;4.40;;;17.40;79.00;;;;;;5028854;28;21248;-75
2022/05/18 01:26:47;;;;;;;9.87;4.20;;;17.40;79.00;;;;;;5023253;28;20452;-75
2022/05/18 01:29:16;;;;;;;8.30;4.63;;;17.30;79.00;;;;;;5021306;28;20994;-76
2022/05/18 01:31:46;;;;;;;7.50;4.33;;;17.30;79.30;;;;;;5024780;28;20984;-77
2022/05/18 01:34:13;;;;;;;9.47;4.77;;;17.30;80.00;;;;;;5010016;28;20428;-75
2022/05/18 01:36:39;;;;;;;10.40;4.47;;;17.30;80.00;;;;;;5011335;28;20419;-76
2022/05/18 01:39:09;;;;;;;8.03;4.73;;;17.10;80.60;;;;;;5025784;28;20526;-75
2022/05/18 01:41:43;;;;;;;6.70;4.20;;;17.10;80.80;;;;;;5021107;28;20193;-77
2022/05/18 01:44:09;;;;;;;6.90;4.80;;;17.10;80.90;;;;;;5039760;28;20518;-76
2022/05/18 01:46:35;;;;;;;7.53;4.60;;;17.10;80.90;;;;;;5048617;28;20542;-74
2022/05/18 01:49:00;;;;;;;9.87;5.00;;;17.00;80.90;;;;;;5042814;28;20207;-77
2022/05/18 01:51:38;;;;;;;8.93;5.37;;;17.00;80.90;;;;;;5041983;28;20268;-78
2022/05/18 01:54:03;;;;;;;6.83;4.97;;;17.00;81.10;;;;;;5042140;28;20696;-76
2022/05/18 01:56:29;;;;;;;9.27;5.83;;;17.00;81.10;;;;;;5049023;28;20408;-76
2022/05/18 01:58:55;;;;;;;8.17;5.10;;;17.00;80.80;;;;;;5041523;28;20181;-74
2022/05/18 02:01:21;;;;;;;6.80;4.77;;;17.00;80.60;;;;;;5047725;28;20420;-74
2022/05/18 02:03:49;;;;;;;7.33;5.10;;;17.10;80.60;;;;;;5046590;28;20467;-74
2022/05/18 02:06:15;;;;;;;5.90;4.53;;;17.10;80.60;;;;;;5048741;28;20431;-74
2022/05/18 02:08:42;;;;;;;6.73;4.80;;;17.00;80.60;;;;;;5038517;28;20463;-75
2022/05/18 02:11:18;;;;;;;7.00;4.10;;;17.10;80.90;;;;;;5042043;28;20419;-75
2022/05/18 02:13:44;;;;;;;9.23;5.40;;;17.10;80.80;;;;;;5041581;28;20524;-75
2022/05/18 02:16:11;;;;;;;6.13;4.47;;;17.10;80.80;;;;;;5045296;28;20449;-75
2022/05/18 02:18:37;;;;;;;8.60;5.07;;;17.00;80.90;;;;;;5038017;28;20434;-74
2022/05/18 02:21:08;;;;;;;8.50;4.13;;;17.00;80.90;;;;;;5047695;28;20435;-75
2022/05/18 02:23:35;;;;;;;9.37;4.97;;;17.00;81.20;;;;;;5046249;28;20490;-74
2022/05/18 02:26:13;;;;;;;8.10;4.50;;;17.00;81.10;;;;;;5043325;28;20964;-74
2022/05/18 02:28:40;;;;;;;6.50;4.50;;;17.00;81.20;;;;;;5044684;28;20458;-75
2022/05/18 02:31:06;;;;;;;7.40;4.63;;;17.00;81.20;;;;;;5038486;28;20797;-76
2022/05/18 02:33:32;;;;;;;7.13;4.63;;;17.00;81.20;;;;;;5047258;28;20489;-75
2022/05/18 02:35:58;;;;;;;6.90;4.73;;;17.00;81.20;;;;;;5047048;28;20452;-77
2022/05/18 02:38:24;;;;;;;5.87;5.20;;;17.00;81.10;;;;;;5049295;28;20415;-76
2022/05/18 02:40:49;;;;;;;6.97;4.50;;;17.00;81.20;;;;;;5047081;28;20222;-75
2022/05/18 02:43:15;;;;;;;12.70;5.00;;;17.00;81.20;;;;;;5047545;28;20278;-75
2022/05/18 02:45:41;;;;;;;10.83;5.87;;;17.00;81.20;;;;;;5038398;28;20182;-76
2022/05/18 02:48:07;;;;;;;8.53;4.80;;;16.90;81.20;;;;;;5050882;28;20679;-75
2022/05/18 02:50:33;;;;;;;6.37;5.20;;;16.80;81.40;;;;;;5041426;28;20231;-76
2022/05/18 02:53:00;;;;;;;6.37;4.90;;;16.80;81.50;;;;;;5044444;28;20478;-74
2022/05/18 02:58:10;;;;;;;9.93;5.53;;;16.80;81.70;;;;;;5046641;28;20438;-76
2022/05/18 03:00:36;;;;;;;7.50;5.07;;;16.70;81.90;;;;;;5051254;28;20840;-75
2022/05/18 03:03:02;;;;;;;6.80;4.83;;;16.70;82.20;;;;;;5045500;28;20208;-74
2022/05/18 03:05:27;;;;;;;9.97;6.40;;;16.60;82.20;;;;;;5051439;28;20191;-76
2022/05/18 03:07:53;;;;;;;8.30;5.50;;;16.70;82.40;;;;;;5049797;28;20478;-76
2022/05/18 03:10:19;;;;;;;6.23;4.80;;;16.70;82.40;;;;;;5050199;28;20217;-74
2022/05/18 03:12:45;;;;;;;9.13;6.27;;;16.60;82.50;;;;;;5046978;28;20333;-74
2022/05/18 03:15:13;;;;;;;8.97;5.33;;;16.70;82.40;;;;;;5051359;28;20669;-75
2022/05/18 03:17:39;;;;;;;7.13;5.23;;;16.60;82.50;;;;;;5053853;28;20419;-75
2022/05/18 03:20:06;;;;;;;9.33;5.97;;;16.60;82.80;;;;;;5055890;28;20413;-76
2022/05/18 03:25:18;;;;;;;9.37;4.87;;;16.60;82.80;;;;;;5062134;28;20492;-75
2022/05/18 03:27:44;;;;;;;8.17;4.90;;;16.50;83.10;;;;;;5061523;28;20470;-74
2022/05/18 03:30:12;;;;;;;6.10;5.07;;;16.50;82.80;;;;;;5058582;28;20488;-75
2022/05/18 03:32:39;;;;;;;10.50;5.73;;;16.50;82.80;;;;;;5044614;28;21044;-76
2022/05/18 03:35:06;;;;;;;8.03;4.90;;;16.40;82.80;;;;;;5047358;28;20430;-75
2022/05/18 03:37:32;;;;;;;9.13;5.37;;;16.40;83.40;;;;;;5051136;28;20422;-76
2022/05/18 03:39:58;;;;;;;12.17;5.63;;;16.40;83.40;;;;;;5044892;28;20432;-77
2022/05/18 03:42:24;;;;;;;12.57;5.30;;;16.40;83.40;;;;;;5038611;28;20201;-75
2022/05/18 03:44:49;;;;;;;6.97;5.37;;;16.50;83.30;;;;;;5046053;28;20196;-75
2022/05/18 03:47:15;;;;;;;6.63;4.93;;;16.50;83.10;;;;;;5043676;28;20192;-76
2022/05/18 03:49:41;;;;;;;9.33;6.03;;;16.50;83.40;;;;;;5044612;28;20988;-74
2022/05/18 03:52:07;;;;;;;7.80;5.60;;;16.40;83.30;;;;;;5046905;28;20667;-77
2022/05/18 03:54:33;;;;;;;8.90;5.80;;;16.30;83.60;;;;;;5049538;28;20659;-74
2022/05/18 03:56:59;;;;;;;10.53;6.10;;;16.20;84.00;;;;;;5047342;28;20481;-75
2022/05/18 03:59:26;;;;;;;7.60;5.80;;;16.20;84.00;;;;;;5046325;28;20427;-77
2022/05/18 04:01:52;;;;;;;13.57;6.73;;;16.10;84.10;;;;;;5041033;28;20442;-75
2022/05/18 04:04:18;;;;;;;9.63;5.60;;;16.10;84.10;;;;;;5046877;28;20430;-77
2022/05/18 04:06:44;;;;;;;7.23;5.53;;;16.00;84.30;;;;;;5046902;28;20449;-77
2022/05/18 04:09:09;;;;;;;8.50;6.37;;;16.10;84.40;;;;;;5048369;28;20209;-76
2022/05/18 04:11:35;;;;;;;12.33;5.80;;;16.10;84.30;;;;;;5047289;28;20603;-76
2022/05/18 04:14:01;;;;;;;8.73;5.93;;;16.00;84.40;;;;;;5040207;28;20191;-76
2022/05/18 04:16:26;;;;;;;8.67;5.47;;;16.00;84.30;;;;;;5042830;28;20253;-77
2022/05/18 04:18:52;;;;;;;9.30;6.73;;;16.00;84.40;;;;;;5045626;28;20181;-76
2022/05/18 04:21:18;;;;;;;9.20;6.00;;;16.10;84.30;;;;;;5043771;28;20213;-77
2022/05/18 04:23:44;;;;;;;8.53;5.90;;;16.10;84.40;;;;;;5042237;28;20570;-77
2022/05/18 04:26:11;;;;;;;13.27;6.17;;;16.10;84.40;;;;;;5043010;28;20426;-76
2022/05/18 04:28:37;;;;;;;10.57;6.00;;;16.10;84.40;;;;;;5041733;28;20235;-77
2022/05/18 04:31:03;;;;;;;9.07;6.50;;;16.20;84.10;;;;;;5049422;28;20438;-75
2022/05/18 04:33:29;;;;;;;8.70;5.63;;;16.30;83.70;;;;;;5043133;28;20589;-75
2022/05/18 04:35:55;;;;;;;8.20;5.10;;;16.40;83.10;;;;;;5050716;28;20914;-75
2022/05/18 04:38:22;;;;;;;8.13;5.50;;;16.40;82.80;;;;;;5071837;28;20195;-76
2022/05/18 04:40:48;;;;;;;8.33;5.50;;;16.40;82.80;;;;;;5048171;28;20194;-78
2022/05/18 04:43:17;;;;;;;9.80;4.97;;;16.30;83.10;;;;;;5039004;28;20462;-76
2022/05/18 04:45:45;;;;;;;8.37;5.13;;;16.30;83.30;;;;;;5052673;28;20419;-75
2022/05/18 04:48:17;;;;;;;9.83;5.67;;;16.50;83.10;;;;;;5044054;28;20501;-76
2022/05/18 04:50:44;;;;;;;8.60;6.53;;;16.60;82.80;;;;;;5046519;28;20416;-77
2022/05/18 04:53:10;;;;;;;8.83;5.47;;;16.60;82.80;;;;;;5048409;28;20493;-75
2022/05/18 04:55:36;;;;;;;9.83;6.07;;;16.60;83.10;;;;;;5051814;28;20496;-75
2022/05/18 04:58:03;;;;;;;11.00;6.80;;;16.70;83.00;;;;;;5036647;28;20457;-76
2022/05/18 05:00:29;;;;;;;10.10;6.13;;;16.70;82.80;;;;;;5047625;28;20187;-77
2022/05/18 05:02:57;;;;;;;12.60;6.10;;;16.80;82.40;;;;;;5049547;28;20498;-75
2022/05/18 05:05:26;;;;;;;11.17;5.43;;;16.90;82.40;;;;;;5051847;28;20431;-77
2022/05/18 05:07:55;;;;;;;10.30;6.10;;;16.90;82.40;;;;;;5045955;28;20474;-76
2022/05/18 05:10:21;;;;;;;10.47;5.77;;;17.00;82.20;;;;;;5048977;28;20425;-77
2022/05/18 05:12:47;;;;;;;9.60;5.43;;;17.10;82.10;;;;;;5042501;28;20583;-76
2022/05/18 05:15:14;;;;;;;10.73;6.03;;;17.10;81.80;;;;;;5051242;28;20418;-77
2022/05/18 05:17:40;;;;;;;8.23;5.73;;;17.10;81.80;;;;;;5047529;28;20533;-77
2022/05/18 05:20:07;;;;;;;8.37;6.00;;;17.00;81.90;;;;;;5042041;28;20466;-76
2022/05/18 05:22:33;;;;;;;9.77;6.40;;;17.10;81.90;;;;;;5049026;28;20454;-76
2022/05/18 05:24:58;;;;;;;9.23;5.93;;;17.10;81.90;;;;;;5047497;28;20431;-76
2022/05/18 05:27:24;;;;;;;9.60;6.77;;;17.30;81.70;;;;;;5050812;28;20178;-76
2022/05/18 05:29:50;;;;;;;8.00;5.37;;;17.30;81.50;;;;;;5046363;28;20676;-75
2022/05/18 05:32:16;;;;;;;11.10;5.57;;;17.50;80.30;;;;;;5048938;28;20245;-76
2022/05/18 05:34:42;;;;;;;6.97;5.30;;;17.50;79.60;;;;;;5054947;28;20173;-77
2022/05/18 05:37:08;;;;;;;11.57;5.50;;;17.60;79.50;;;;;;5058524;28;20411;-74
2022/05/18 05:39:34;;;;;;;10.50;6.20;;;17.60;79.20;;;;;;5046893;28;20420;-77
2022/05/18 05:42:00;;;;;;;11.13;6.07;;;17.70;78.70;;;;;;5049141;28;20467;-76
2022/05/18 05:44:26;;;;;;;10.80;6.27;;;17.80;78.10;;;;;;5040226;28;21103;-76
2022/05/18 05:46:52;;;;;;;13.57;7.17;;;17.70;78.40;;;;;;5047280;28;20277;-78
2022/05/18 05:49:18;;;;;;;10.13;6.47;;;17.70;78.70;;;;;;5036935;28;20526;-77
2022/05/18 05:51:44;;;;;;;11.70;6.50;;;17.70;78.90;;;;;;5044081;28;20471;-78
2022/05/18 05:54:10;;;;;;;11.60;5.97;;;18.00;78.30;;;;;;5049693;28;20455;-79
2022/05/18 05:56:36;;;;;;;11.80;7.00;;;18.10;78.10;;;;;;5048794;28;20422;-79
2022/05/18 05:59:01;;;;;;;11.93;7.17;;;18.10;78.30;;;;;;5053293;28;20189;-78
2022/05/18 06:01:27;;;;;;;10.27;7.03;;;18.20;78.60;;;;;;5050983;28;20183;-78
2022/05/18 06:03:53;;;;;;;12.70;6.93;;;18.30;78.60;;;;;;5043314;28;20204;-78
2022/05/18 06:06:19;;;;;;;13.10;7.50;;;18.40;78.40;;;;;;5045750;28;20266;-76
2022/05/18 06:08:45;;;;;;;13.80;7.57;;;18.50;78.40;;;;;;5047371;28;20271;-77
2022/05/18 06:11:12;;;;;;;13.53;6.87;;;18.50;78.40;;;;;;5041958;28;20520;-80
2022/05/18 06:13:38;;;;;;;15.27;7.43;;;18.60;78.00;;;;;;5042748;28;20462;-77
2022/05/18 06:16:06;;;;;;;11.50;6.77;;;18.70;77.80;;;;;;5051967;28;20429;-78
2022/05/18 06:18:33;;;;;;;11.60;7.20;;;18.80;77.80;;;;;;5050695;28;20828;-79
2022/05/18 06:20:59;;;;;;;12.50;7.63;;;18.90;77.30;;;;;;5052049;28;20512;-76
2022/05/18 06:23:25;;;;;;;17.43;7.20;;;19.00;77.10;;;;;;5048176;28;20566;-77
2022/05/18 06:25:51;;;;;;;11.90;7.20;;;19.00;76.70;;;;;;5051860;28;20183;-77
2022/05/18 06:28:17;;;;;;;9.83;6.50;;;19.10;75.90;;;;;;5049530;28;20687;-76
2022/05/18 06:30:43;;;;;;;17.33;7.47;;;19.10;75.80;;;;;;5050408;28;20431;-78
2022/05/18 06:33:10;;;;;;;9.50;6.13;;;19.20;75.70;;;;;;5048958;28;20575;-78
2022/05/18 06:35:35;;;;;;;11.00;6.60;;;19.20;75.80;;;;;;5051514;28;20882;-76
2022/05/18 06:38:09;;;;;;;20.10;6.97;;;19.30;74.50;;;;;;5051723;28;20422;-77
2022/05/18 06:43:22;;;;;;;10.27;6.27;;;19.50;73.20;;;;;;5049382;28;20442;-76
2022/05/18 06:45:48;;;;;;;10.73;6.40;;;19.70;72.70;;;;;;5049493;28;20437;-76
2022/05/18 06:48:14;;;;;;;14.57;7.27;;;19.80;72.40;;;;;;5050303;28;20240;-75
2022/05/18 06:50:40;;;;;;;16.53;6.67;;;19.90;72.40;;;;;;5051243;28;20454;-75
2022/05/18 06:53:05;;;;;;;12.03;5.53;;;20.00;71.80;;;;;;5042635;28;20332;-75
2022/05/18 06:55:31;;;;;;;11.07;6.20;;;20.10;71.80;;;;;;5042988;28;20258;-77
2022/05/18 06:57:57;;;;;;;11.47;6.90;;;20.20;71.70;;;;;;5050696;28;20240;-76
2022/05/18 07:00:23;;;;;;;16.07;6.33;;;20.30;71.00;;;;;;5050088;28;20187;-75
2022/05/18 07:02:50;;;;;;;13.37;6.40;;;20.50;70.40;;;;;;5044913;28;20227;-75
2022/05/18 07:05:16;;;;;;;16.00;6.20;;;20.60;70.20;;;;;;5053390;28;20211;-75
2022/05/18 07:07:41;;;;;;;11.23;6.03;;;20.70;69.70;;;;;;5050388;28;20969;-74
2022/05/18 07:10:08;;;;;;;9.53;6.20;;;20.70;69.80;;;;;;5044692;28;20789;-75
2022/05/18 07:12:37;;;;;;;11.90;7.00;;;20.80;69.80;;;;;;5049656;28;20209;-74
2022/05/18 07:15:05;;;;;;;9.07;6.53;;;20.90;69.40;;;;;;5050742;28;20452;-75
2022/05/18 07:17:31;;;;;;;11.77;6.10;;;21.00;68.80;;;;;;5049917;28;20425;-75
2022/05/18 07:19:56;;;;;;;12.27;7.20;;;21.10;68.60;;;;;;5044425;28;20426;-76
2022/05/18 07:22:22;;;;;;;8.80;6.13;;;21.10;68.30;;;;;;5048908;28;20467;-76
2022/05/18 07:24:49;;;;;;;14.57;7.13;;;21.20;68.50;;;;;;5047489;28;20258;-75
2022/05/18 07:27:16;;;;;;;14.20;5.90;;;21.30;68.20;;;;;;5045532;28;20665;-75
2022/05/18 07:29:42;;;;;;;7.17;4.20;;;21.30;66.70;;;;;;5048396;28;21021;-76
2022/05/18 07:32:08;;;;;;;14.07;5.30;;;21.40;64.40;;;;;;5049438;28;20464;-76
2022/05/18 07:34:37;;;;;;;36.30;7.90;;;21.60;62.90;;;;;;5053253;28;20484;-75
2022/05/18 07:37:04;;;;;;;17.50;5.37;;;21.60;63.10;;;;;;5044065;28;20993;-75
2022/05/18 07:39:30;;;;;;;25.60;6.13;;;21.70;62.00;;;;;;5053026;28;20443;-76
2022/05/18 07:41:58;;;;;;;10.27;5.27;;;21.80;62.90;;;;;;5052719;28;20521;-75
2022/05/18 07:44:25;;;;;;;7.77;4.67;;;21.90;62.90;;;;;;5053401;28;20513;-75
2022/05/18 07:46:50;;;;;;;8.30;5.83;;;22.00;64.10;;;;;;5053104;28;20754;-76
2022/05/18 07:49:17;;;;;;;7.97;4.77;;;22.10;63.90;;;;;;5054097;28;20480;-76
2022/05/18 07:51:43;;;;;;;82.63;17.17;;;22.20;62.60;;;;;;5051907;28;20652;-76
2022/05/18 07:54:09;;;;;;;9.50;4.50;;;22.20;63.20;;;;;;5052188;28;20487;-77
2022/05/18 07:56:35;;;;;;;13.60;5.60;;;22.30;62.00;;;;;;5053701;28;20504;-76
2022/05/18 07:59:03;;;;;;;13.10;4.50;;;22.50;61.60;;;;;;5052288;28;21003;-76
2022/05/18 08:01:30;;;;;;;27.67;9.10;;;22.50;61.20;;;;;;5047302;28;20458;-76
2022/05/18 08:03:56;;;;;;;10.33;5.10;;;22.60;60.30;;;;;;5049996;28;20839;-75
2022/05/18 08:06:21;;;;;;;6.57;4.47;;;22.70;60.30;;;;;;5053119;28;20193;-75
2022/05/18 08:08:47;;;;;;;8.87;4.60;;;22.80;59.90;;;;;;5053339;28;20220;-75
2022/05/18 08:16:42;;;;;;;8.10;4.80;;;23.00;59.90;;;;;;5045373;28;20454;-76
2022/05/18 08:19:12;;;;;;;70.00;12.50;;;22.90;60.30;;;;;;5048649;28;20421;-76
2022/05/18 08:21:38;;;;;;;55.87;10.87;;;23.00;60.00;;;;;;5048265;28;20530;-77
2022/05/18 08:24:05;;;;;;;13.00;5.27;;;23.10;59.70;;;;;;5050166;28;20463;-75
2022/05/18 08:26:31;;;;;;;15.43;5.27;;;23.10;59.30;;;;;;5052468;28;20429;-76
2022/05/18 08:28:58;;;;;;;10.30;4.83;;;23.30;59.30;;;;;;5054162;28;20517;-75
2022/05/18 08:31:24;;;;;;;41.83;9.30;;;23.30;58.90;;;;;;5049389;28;20447;-77
2022/05/18 08:33:50;;;;;;;37.93;8.10;;;23.30;58.70;;;;;;5051725;28;21123;-74
2022/05/18 08:36:18;;;;;;;10.20;5.00;;;23.40;58.70;;;;;;5053989;28;20195;-75
2022/05/18 08:38:45;;;;;;;79.73;14.93;;;23.50;58.20;;;;;;5052158;28;20444;-75
2022/05/18 08:41:18;;;;;;;12.00;5.13;;;23.50;58.10;;;;;;5054148;28;20425;-75
2022/05/18 08:43:48;;;;;;;5.80;3.70;;;23.70;57.40;;;;;;5049071;28;20472;-74
2022/05/18 08:46:32;;;;;;;6.40;4.50;;;23.90;56.80;;;;;;5055363;28;20432;-75
2022/05/18 08:49:12;;;;;;;9.33;5.40;;;23.90;56.10;;;;;;5049615;28;20460;-75
2022/05/18 08:51:56;;;;;;;7.93;4.80;;;24.00;56.10;;;;;;5039790;28;20421;-76
2022/05/18 08:54:28;;;;;;;6.57;4.40;;;24.10;55.70;;;;;;5047697;28;20485;-74
2022/05/18 08:56:58;;;;;;;6.10;4.60;;;24.10;56.10;;;;;;5059635;28;20419;-75
2022/05/18 08:59:27;;;;;;;9.57;5.10;;;24.20;56.10;;;;;;5056256;28;20432;-74
2022/05/18 09:01:58;;;;;;;5.63;4.20;;;24.30;56.10;;;;;;5056330;28;20468;-75
2022/05/18 09:04:30;;;;;;;5.67;4.20;;;24.40;55.30;;;;;;5057621;28;20932;-75
2022/05/18 09:07:04;;;;;;;7.10;4.13;;;24.40;54.60;;;;;;5056106;28;20933;-76
2022/05/18 09:12:25;;;;;;;7.40;4.50;;;24.50;54.60;;;;;;5054367;28;20836;-74
2022/05/18 09:14:52;;;;;;;18.83;4.97;;;24.40;54.90;;;;;;5054343;28;20418;-75
2022/05/18 09:17:40;;;;;;;7.67;4.63;;;24.40;55.40;;;;;;5051037;28;20191;-75
2022/05/18 09:20:15;;;;;;;6.23;3.87;;;24.40;54.50;;;;;;5044423;28;20533;-76
2022/05/18 09:22:56;;;;;;;7.20;4.73;;;24.50;54.50;;;;;;5050427;28;20458;-75
2022/05/18 09:25:39;;;;;;;10.03;4.50;;;24.60;52.80;;;;;;5055484;28;20420;-77
2022/05/18 09:28:24;;;;;;;7.67;4.53;;;24.60;53.80;;;;;;5057014;28;20589;-77
2022/05/18 09:30:56;;;;;;;5.87;4.00;;;24.50;54.40;;;;;;5056800;28;20447;-75
2022/05/18 09:33:43;;;;;;;6.90;4.83;;;24.60;54.20;;;;;;5059144;28;20462;-76
2022/05/18 09:36:19;;;;;;;6.90;4.30;;;24.50;54.20;;;;;;5062015;28;20419;-76
2022/05/18 09:38:51;;;;;;;5.67;3.40;;;24.50;53.70;;;;;;5061173;28;20438;-76
2022/05/18 09:41:20;;;;;;;4.67;3.90;;;24.70;50.20;;;;;;5060840;28;20509;-74
2022/05/18 09:43:54;;;;;;;9.00;3.53;;;24.80;51.40;;;;;;5058375;28;21416;-75
2022/05/18 09:46:24;;;;;;;6.60;4.20;;;24.80;50.70;;;;;;5052846;28;20416;-76
2022/05/18 09:49:15;;;;;;;4.53;3.50;;;24.80;49.50;;;;;;5052365;28;20930;-77
2022/05/18 09:51:42;;;;;;;8.57;4.10;;;24.80;48.90;;;;;;5051010;28;20442;-78
2022/05/18 09:54:09;;;;;;;7.80;4.27;;;24.90;48.60;;;;;;5051103;28;20938;-76
2022/05/18 09:56:43;;;;;;;6.60;4.00;;;24.80;48.60;;;;;;5055302;28;20450;-77
2022/05/18 09:59:14;;;;;;;4.30;3.50;;;25.10;47.70;;;;;;5052022;28;20426;-77
2022/05/18 10:07:27;;;;;;;9.37;4.50;;;26.10;47.50;;;;;;5052790;28;20486;-76
2022/05/18 10:10:01;;;;;;;7.00;4.30;;;26.50;46.20;;;;;;5050357;28;20552;-76
2022/05/18 10:12:54;;;;;;;7.80;5.53;;;26.90;45.00;;;;;;5048959;28;20463;-76
2022/05/18 10:15:25;;;;;;;9.13;4.50;;;26.70;45.50;;;;;;5049738;28;20418;-77
2022/05/18 10:18:14;;;;;;;5.87;4.40;;;26.70;44.90;;;;;;5050672;28;20430;-75
2022/05/18 10:20:40;;;;;;;8.73;5.30;;;26.80;45.10;;;;;;5046311;28;20445;-76
2022/05/18 10:23:30;;;;;;;7.47;3.40;;;27.10;42.70;;;;;;5048753;28;20462;-75
2022/05/18 10:25:57;;;;;;;7.17;4.17;;;27.50;41.40;;;;;;5045937;28;20446;-76
2022/05/18 10:28:25;;;;;;;6.00;4.03;;;27.50;40.60;;;;;;5051303;28;20504;-77
2022/05/18 10:31:03;;;;;;;3.80;3.20;;;27.70;41.50;;;;;;5051524;28;20815;-73
2022/05/18 10:33:36;;;;;;;5.73;3.90;;;27.60;41.80;;;;;;5045697;28;20462;-76
2022/05/18 10:36:23;;;;;;;7.30;3.60;;;27.30;42.20;;;;;;5046750;28;20909;-76
2022/05/18 10:38:54;;;;;;;8.73;5.10;;;27.50;42.30;;;;;;5046092;28;20433;-75
2022/05/18 10:41:27;;;;;;;5.20;3.93;;;27.50;41.00;;;;;;5052474;28;20419;-77
2022/05/18 10:44:05;;;;;;;5.37;3.33;;;27.30;42.20;;;;;;5044399;28;20552;-76
2022/05/18 10:46:39;;;;;;;6.10;4.30;;;27.60;41.50;;;;;;5050726;28;20487;-79
2022/05/18 10:49:29;;;;;;;7.40;3.30;;;27.60;41.50;;;;;;5050861;28;20469;-76
2022/05/18 10:52:07;;;;;;;3.87;3.23;;;27.70;41.60;;;;;;5047261;28;20415;-76
2022/05/18 10:54:33;;;;;;;3.70;2.63;;;28.10;39.50;;;;;;5045403;28;20454;-76
2022/05/18 10:57:20;;;;;;;5.43;3.37;;;28.30;38.20;;;;;;5052268;28;20434;-75
2022/05/18 11:00:20;;;;;;;3.63;3.13;;;28.50;37.60;;;;;;5064723;28;20189;-76
2022/05/18 11:03:25;;;;;;;6.33;4.67;;;28.50;38.80;;;;;;5006484;28;20678;-76
2022/05/18 11:06:12;;;;;;;6.60;4.20;;;28.80;38.30;;;;;;5028428;28;20471;-76
2022/05/18 11:08:38;;;;;;;5.10;4.10;;;28.50;39.10;;;;;;5028304;28;21234;-75
2022/05/18 11:11:22;;;;;;;9.27;4.70;;;28.40;39.90;;;;;;5023938;28;20420;-75
2022/05/18 11:14:13;;;;;;;5.10;3.40;;;28.10;40.30;;;;;;5047119;28;20279;-75
2022/05/18 11:16:54;;;;;;;7.87;3.90;;;28.00;41.20;;;;;;5051668;28;20518;-74
2022/05/18 11:19:30;;;;;;;6.10;4.10;;;28.10;41.40;;;;;;5058501;28;20428;-75
2022/05/18 11:22:16;;;;;;;7.13;4.03;;;28.10;39.90;;;;;;5032519;28;20423;-75
2022/05/18 11:25:09;;;;;;;6.17;3.20;;;28.20;40.30;;;;;;5026408;28;20825;-75
2022/05/18 11:27:51;;;;;;;7.67;3.30;;;28.60;39.60;;;;;;5029865;28;20422;-76
2022/05/18 11:30:20;;;;;;;9.20;3.67;;;28.70;39.90;;;;;;5032119;28;20968;-77
2022/05/18 11:33:18;;;;;;;7.07;3.63;;;29.10;39.10;;;;;;5023912;28;20561;-75
2022/05/18 11:36:05;;;;;;;4.80;3.47;;;29.30;38.60;;;;;;5015021;28;20420;-76
2022/05/18 11:38:30;;;;;;;6.20;4.57;;;29.00;38.80;;;;;;5037610;28;20423;-76
2022/05/18 11:41:08;;;;;;;8.13;4.93;;;28.70;38.40;;;;;;5054339;28;20421;-76
2022/05/18 11:43:55;;;;;;;4.60;3.43;;;28.50;39.60;;;;;;5047849;28;20211;-75
2022/05/18 11:46:32;;;;;;;5.57;3.80;;;28.80;40.40;;;;;;5040680;28;20411;-75
2022/05/18 11:48:58;;;;;;;6.63;4.10;;;29.10;39.50;;;;;;5046535;28;20521;-77
2022/05/18 11:52:01;;;;;;;6.20;3.33;;;29.10;39.50;;;;;;5043054;28;20826;-77
2022/05/18 11:54:45;;;;;;;5.43;3.50;;;29.50;38.60;;;;;;5042812;28;20208;-76
2022/05/18 11:57:47;;;;;;;6.13;3.50;;;29.60;37.50;;;;;;5046846;28;20925;-74
2022/05/18 12:03:28;;;;;;;6.47;3.73;;;29.80;37.60;;;;;;5047123;28;20533;-74
2022/05/18 12:06:12;;;;;;;4.57;3.70;;;30.10;37.10;;;;;;5046668;28;20410;-75
2022/05/18 12:08:44;;;;;;;5.60;3.53;;;30.10;38.30;;;;;;5046605;28;20524;-76
2022/05/18 12:11:18;;;;;;;5.03;3.83;;;30.30;37.80;;;;;;5046238;28;20424;-74
2022/05/18 12:14:11;;;;;;;8.00;3.80;;;30.50;36.70;;;;;;5046521;28;20981;-76
2022/05/18 12:16:59;;;;;;;6.57;3.97;;;30.50;36.60;;;;;;5044504;28;20419;-75
2022/05/18 12:19:47;;;;;;;5.30;3.83;;;30.60;36.80;;;;;;5049937;28;20419;-75
2022/05/18 12:22:19;;;;;;;4.00;3.47;;;30.50;36.60;;;;;;5044854;28;20858;-75
2022/05/18 12:24:47;;;;;;;8.00;5.80;;;30.70;37.00;;;;;;5044939;28;20423;-75
2022/05/18 12:27:15;;;;;;;5.47;3.20;;;30.40;36.80;;;;;;5050148;28;20427;-76
2022/05/18 12:29:42;;;;;;;7.40;3.90;;;30.50;37.50;;;;;;5051811;28;20463;-76
2022/05/18 12:32:11;;;;;;;7.27;4.10;;;30.70;36.80;;;;;;5045986;28;20455;-78
2022/05/18 12:34:43;;;;;;;5.40;3.53;;;30.80;36.60;;;;;;5056600;28;20419;-75
2022/05/18 12:37:08;;;;;;;5.10;3.20;;;30.90;37.00;;;;;;5049922;28;20775;-75
2022/05/18 12:39:42;;;;;;;4.50;3.40;;;31.10;34.50;;;;;;5055876;28;20505;-75
2022/05/18 12:42:13;;;;;;;4.77;3.47;;;30.80;35.50;;;;;;5046724;28;20205;-75
2022/05/18 12:44:42;;;;;;;9.70;3.47;;;31.30;34.40;;;;;;5055364;28;20414;-75
2022/05/18 12:47:28;;;;;;;4.60;3.33;;;31.60;34.30;;;;;;5059243;28;20415;-76
2022/05/18 12:50:07;;;;;;;7.00;4.00;;;31.50;34.50;;;;;;5058935;28;20486;-76
2022/05/18 12:52:42;;;;;;;6.90;4.30;;;31.60;34.40;;;;;;5055377;28;20465;-76
2022/05/18 12:55:37;;;;;;;7.23;4.07;;;31.50;34.10;;;;;;5049213;28;20434;-74
2022/05/18 12:58:26;;;;;;;8.70;6.33;;;31.40;34.40;;;;;;5052375;28;20411;-75
2022/05/18 13:01:06;;;;;;;4.83;3.00;;;31.60;34.30;;;;;;5056817;28;20427;-75
2022/05/18 13:03:52;;;;;;;5.87;3.83;;;32.30;32.80;;;;;;5053921;28;20458;-76
2022/05/18 13:06:43;;;;;;;4.50;3.40;;;32.00;33.50;;;;;;5069000;28;20442;-75
2022/05/18 13:09:21;;;;;;;6.00;3.60;;;32.20;33.10;;;;;;5050069;28;20472;-75
2022/05/18 13:12:03;;;;;;;6.67;3.57;;;32.20;32.90;;;;;;5048564;28;20438;-75
2022/05/18 13:14:34;;;;;;;7.10;3.40;;;32.20;33.30;;;;;;5053631;28;20427;-75
2022/05/18 13:17:06;;;;;;;8.67;3.20;;;32.40;32.90;;;;;;5050255;28;20419;-75
2022/05/18 13:19:35;;;;;;;3.87;3.30;;;32.40;32.00;;;;;;5051343;28;20419;-76
2022/05/18 13:22:24;;;;;;;9.40;4.53;;;31.90;33.60;;;;;;5045129;28;20449;-76
2022/05/18 13:24:59;;;;;;;5.23;3.30;;;31.80;33.90;;;;;;5054245;28;20793;-75
2022/05/18 13:27:37;;;;;;;8.20;3.90;;;32.00;33.70;;;;;;5051671;28;20425;-76